Time;durP1;ratioP1;P1;durP2;ratioP2;P2;SDS_P1;SDS_P2;PMS_P1;PMS_P2;Temp;Humidity;BMP_temperature;BMP_pressure;BME280_temperature;BME280_humidity;BME280_pressure;Samples;Min_cycle;Max_cycle;Signal;HPM_P1;HPM_P2
2021/01/01 12:30:19;;;;;;;14.63;9.52;;;486.70;998.40;;;;;;5063267;28;20407;-88
2021/01/01 12:32:45;;;;;;;17.40;11.57;;;435.20;1100.80;;;;;;5028989;28;20083;-88
2021/01/01 12:35:12;;;;;;;23.80;16.10;;;410.00;1126.40;;;;;;5055351;28;20399;-88
2021/01/01 12:37:39;;;;;;;30.30;17.90;;;384.70;1152.00;;;;;;5069819;28;20264;-89
2021/01/01 12:40:07;;;;;;;26.98;19.13;;;384.20;1177.60;;;;;;5068697;28;20035;-86
2021/01/01 12:42:33;;;;;;;30.75;21.05;;;384.00;1203.20;;;;;;5067398;28;20029;-86
2021/01/01 12:45:00;;;;;;;32.85;22.63;;;359.20;1228.80;;;;;;5063883;28;20043;-86
2021/01/01 12:47:26;;;;;;;22.90;14.85;;;358.40;1254.40;;;;;;5065281;28;20116;-88
2021/01/01 12:49:52;;;;;;;27.23;16.85;;;358.80;1254.40;;;;;;5059944;28;20020;-87
2021/01/01 12:52:20;;;;;;;34.20;22.25;;;358.60;1254.40;;;;;;5067580;28;20377;-88
2021/01/01 12:54:45;;;;;;;22.42;15.32;;;358.40;1331.20;;;;;;5060668;28;20024;-87
2021/01/01 12:57:11;;;;;;;53.95;36.78;;;333.60;1305.60;;;;;;5067196;28;20123;-88
2021/01/01 12:59:37;;;;;;;43.60;30.85;;;333.60;1331.20;;;;;;5061358;28;20075;-87
2021/01/01 13:02:03;;;;;;;37.17;24.50;;;333.40;1331.20;;;;;;5065433;28;20033;-86
2021/01/01 13:04:29;;;;;;;46.67;29.33;;;333.20;1356.80;;;;;;5063397;28;20029;-87
2021/01/01 13:06:55;;;;;;;58.97;37.83;;;333.20;1382.40;;;;;;5057034;28;20031;-87
2021/01/01 13:09:22;;;;;;;60.63;37.78;;;333.20;1382.40;;;;;;5061694;28;20029;-87
2021/01/01 13:11:48;;;;;;;66.68;37.60;;;333.40;1356.80;;;;;;5065492;28;20048;-88
2021/01/01 13:14:14;;;;;;;39.50;24.33;;;333.40;1331.20;;;;;;5058649;28;20473;-85
2021/01/01 13:16:42;;;;;;;55.55;36.83;;;333.60;1331.20;;;;;;5060037;28;20116;-87
2021/01/01 13:19:08;;;;;;;44.53;28.00;;;333.70;1331.20;;;;;;5059706;28;20060;-84
2021/01/01 13:21:36;;;;;;;42.47;29.48;;;358.50;1331.20;;;;;;5059262;28;20032;-84
2021/01/01 13:24:03;;;;;;;33.35;21.27;;;358.60;1280.00;;;;;;5062211;28;20046;-86
2021/01/01 13:26:31;;;;;;;24.80;15.88;;;358.70;1280.00;;;;;;5063769;28;20037;-88
2021/01/01 13:28:58;;;;;;;29.73;19.58;;;358.80;1254.40;;;;;;5066020;28;20040;-85
2021/01/01 13:31:34;;;;;;;36.55;22.02;;;358.70;1254.40;;;;;;5067162;28;20032;-86
2021/01/01 13:34:12;;;;;;;30.42;21.50;;;358.70;1254.40;;;;;;5058657;28;20013;-85
2021/01/01 13:36:43;;;;;;;30.95;19.08;;;358.60;1305.60;;;;;;5081933;28;20598;-87
2021/01/01 13:39:12;;;;;;;37.17;27.08;;;358.50;1305.60;;;;;;5059444;28;20060;-86
2021/01/01 13:41:39;;;;;;;46.25;33.13;;;358.40;1331.20;;;;;;5041250;28;20040;-87
2021/01/01 13:44:06;;;;;;;45.55;30.63;;;333.70;1305.60;;;;;;5045731;28;20474;-88
2021/01/01 13:46:35;;;;;;;53.30;34.08;;;333.50;1305.60;;;;;;5050082;28;20086;-88
2021/01/01 13:49:07;;;;;;;60.03;35.08;;;333.30;1331.20;;;;;;4945424;28;20056;-90
2021/01/01 13:51:36;;;;;;;50.35;35.75;;;333.30;1305.60;;;;;;5016798;28;20056;-85
2021/01/01 13:54:03;;;;;;;37.70;28.67;;;333.20;1305.60;;;;;;5033224;28;20112;-88
2021/01/01 13:56:30;;;;;;;31.27;20.70;;;333.20;1305.60;;;;;;5032743;28;20021;-89
2021/01/01 13:58:56;;;;;;;28.30;18.67;;;333.20;1305.60;;;;;;5035183;28;20069;-89
2021/01/01 14:01:24;;;;;;;40.53;25.45;;;333.20;1228.80;;;;;;5034872;28;20041;-89
2021/01/01 14:03:52;;;;;;;28.23;18.80;;;333.00;1254.40;;;;;;5035628;28;20075;-90
2021/01/01 14:06:18;;;;;;;34.30;19.90;;;333.00;1228.80;;;;;;5035798;28;20377;-91
2021/01/01 14:08:44;;;;;;;26.40;17.10;;;358.60;1228.80;;;;;;5036155;28;20025;-90
2021/01/01 14:11:12;;;;;;;29.75;19.52;;;307.70;1228.80;;;;;;5037213;28;20032;-91
2021/01/01 14:13:39;;;;;;;36.58;23.83;;;307.80;1254.40;;;;;;5036159;28;20029;-90
2021/01/01 14:16:09;;;;;;;15.88;11.23;;;307.80;1254.40;;;;;;5036006;28;20087;-89
2021/01/01 14:18:35;;;;;;;28.67;21.63;;;307.70;1228.80;;;;;;5030968;28;20025;-88
2021/01/01 14:21:02;;;;;;;47.50;32.78;;;282.20;1228.80;;;;;;5032857;28;20021;-85
2021/01/01 14:23:32;;;;;;;59.13;35.92;;;307.30;1331.20;;;;;;5033148;28;20108;-86
2021/01/01 14:25:58;;;;;;;41.20;28.23;;;307.40;1331.20;;;;;;5032504;28;20104;-85
2021/01/01 14:28:24;;;;;;;43.35;29.77;;;307.40;1356.80;;;;;;5032702;28;20114;-87
2021/01/01 14:30:50;;;;;;;48.45;32.25;;;307.30;1382.40;;;;;;5034085;28;20033;-87
2021/01/01 14:33:16;;;;;;;57.00;35.00;;;307.20;1382.40;;;;;;5031885;28;20022;-86
2021/01/01 14:35:42;;;;;;;95.75;60.17;;;307.20;1382.40;;;;;;5033538;28;20373;-86
2021/01/01 14:38:08;;;;;;;92.95;58.97;;;282.50;1382.40;;;;;;5033340;28;20454;-89
2021/01/01 14:40:33;;;;;;;88.35;59.83;;;282.40;1382.40;;;;;;4814363;28;20069;-87
2021/01/01 14:42:59;;;;;;;78.60;54.58;;;282.40;1408.00;;;;;;5031269;28;20022;-86
2021/01/01 14:45:25;;;;;;;82.95;57.13;;;282.20;1408.00;;;;;;5032295;28;20124;-88
2021/01/01 14:47:51;;;;;;;75.35;50.75;;;282.20;1433.60;;;;;;5029724;28;20350;-83
2021/01/01 14:50:17;;;;;;;51.55;36.28;;;282.20;1433.60;;;;;;5031751;28;20457;-87
2021/01/01 14:52:43;;;;;;;46.35;33.78;;;282.00;1433.60;;;;;;5031319;28;20381;-87
2021/01/01 14:55:10;;;;;;;52.35;34.45;;;281.90;1433.60;;;;;;5034303;28;20018;-88
2021/01/01 14:57:38;;;;;;;66.13;43.85;;;281.90;1459.20;;;;;;5033827;28;20066;-87
2021/01/01 15:00:09;;;;;;;142.68;94.90;;;281.70;1433.60;;;;;;5031793;28;20030;-87
2021/01/01 15:02:35;;;;;;;138.07;91.45;;;256.90;1433.60;;;;;;5023991;28;20034;-86
2021/01/01 15:05:01;;;;;;;187.48;105.93;;;256.90;1459.20;;;;;;5027497;28;20022;-87
2021/01/01 15:07:28;;;;;;;128.60;79.78;;;256.90;1459.20;;;;;;5034856;28;20037;-89
2021/01/01 15:09:54;;;;;;;113.18;65.55;;;256.80;1459.20;;;;;;5038540;28;20034;-87
2021/01/01 15:12:19;;;;;;;125.50;68.20;;;256.80;1459.20;;;;;;5033834;28;20036;-87
2021/01/01 15:14:46;;;;;;;99.97;58.00;;;256.70;1459.20;;;;;;5027727;28;20481;-87
2021/01/01 15:17:12;;;;;;;144.43;80.38;;;256.50;1510.40;;;;;;5036286;28;20021;-87
2021/01/01 15:19:39;;;;;;;158.23;88.50;;;256.30;1459.20;;;;;;5030593;28;20041;-88
2021/01/01 15:22:05;;;;;;;202.13;110.75;;;256.40;1510.40;;;;;;5031659;28;20021;-90
2021/01/01 15:24:31;;;;;;;265.00;148.38;;;256.50;1510.40;;;;;;5030232;28;20025;-86
2021/01/01 15:26:57;;;;;;;281.52;155.30;;;256.30;1510.40;;;;;;5039660;28;20021;-87
2021/01/01 15:29:24;;;;;;;259.50;149.18;;;256.40;1536.00;;;;;;5028930;28;20091;-88
2021/01/01 15:31:50;;;;;;;225.68;133.88;;;256.30;1510.40;;;;;;5031015;28;20029;-89
2021/01/01 15:34:17;;;;;;;193.50;114.97;;;256.30;1536.00;;;;;;5039830;28;20035;-88
2021/01/01 15:36:43;;;;;;;165.75;101.97;;;256.20;1536.00;;;;;;5029916;28;20033;-88
2021/01/01 15:39:09;;;;;;;188.50;122.13;;;256.10;1536.00;;;;;;5037393;28;20037;-86
2021/01/01 15:41:53;;;;;;;278.15;178.55;;;256.20;1510.40;;;;;;5027982;28;20045;-87
2021/01/01 15:44:20;;;;;;;288.92;181.13;;;231.10;1561.60;;;;;;5025643;28;20041;-85
2021/01/01 15:46:47;;;;;;;331.17;210.68;;;231.20;1561.60;;;;;;5017432;28;20130;-87
2021/01/01 15:49:13;;;;;;;366.15;231.00;;;231.20;1587.20;;;;;;5031984;28;20025;-88
2021/01/01 15:51:39;;;;;;;432.15;280.38;;;230.80;1612.80;;;;;;5030121;28;20083;-86
2021/01/01 15:54:05;;;;;;;446.45;274.67;;;230.90;1587.20;;;;;;5031335;28;20057;-86
2021/01/01 15:56:30;;;;;;;390.45;235.18;;;230.80;1612.80;;;;;;5048610;28;20063;-87
2021/01/01 15:58:57;;;;;;;296.27;182.80;;;230.90;1612.80;;;;;;5049228;28;20033;-82
2021/01/01 16:01:25;;;;;;;228.98;137.90;;;230.90;1612.80;;;;;;5050626;28;20021;-88
2021/01/01 16:03:54;;;;;;;192.68;119.95;;;230.90;1587.20;;;;;;5042462;28;20029;-88
2021/01/01 16:06:20;;;;;;;166.00;91.82;;;230.80;1612.80;;;;;;5050247;28;20407;-88
2021/01/01 16:08:47;;;;;;;198.18;101.68;;;230.70;1612.80;;;;;;5039722;28;20017;-88
2021/01/01 16:11:14;;;;;;;181.27;94.85;;;230.80;1587.20;;;;;;5031208;28;20439;-87
2021/01/01 16:13:40;;;;;;;95.80;55.17;;;205.70;1612.80;;;;;;5045174;28;20025;-87
2021/01/01 16:16:06;;;;;;;323.73;199.38;;;230.70;1612.80;;;;;;5035585;28;20029;-88
2021/01/01 16:18:32;;;;;;;303.02;188.50;;;230.50;1638.40;;;;;;5050235;28;20090;-87
2021/01/01 16:20:59;;;;;;;377.88;235.93;;;230.50;1638.40;;;;;;5040371;28;20017;-89
2021/01/01 16:23:25;;;;;;;330.15;206.93;;;230.50;1664.00;;;;;;5048184;28;20067;-88
2021/01/01 16:25:51;;;;;;;240.40;156.63;;;230.40;1664.00;;;;;;5031979;28;20376;-83
2021/01/01 16:28:18;;;;;;;282.33;185.30;;;230.50;1664.00;;;;;;5013696;28;20171;-82
2021/01/01 16:30:44;;;;;;;261.38;168.70;;;205.50;1664.00;;;;;;5030947;28;20026;-82
2021/01/01 16:33:09;;;;;;;253.32;165.82;;;205.40;1715.20;;;;;;5031342;28;20031;-83
2021/01/01 16:35:35;;;;;;;259.25;173.23;;;205.50;1689.60;;;;;;5040969;28;20025;-82
2021/01/01 16:38:01;;;;;;;282.05;191.18;;;205.40;1689.60;;;;;;5048987;28;20025;-83
2021/01/01 16:40:27;;;;;;;280.33;188.10;;;205.40;1689.60;;;;;;5048400;28;20029;-82
2021/01/01 16:42:55;;;;;;;334.48;215.55;;;205.40;1689.60;;;;;;5036575;28;20124;-85
2021/01/01 16:45:21;;;;;;;265.02;169.27;;;205.50;1689.60;;;;;;5011653;28;20034;-87
2021/01/01 16:47:48;;;;;;;340.42;214.85;;;205.30;1689.60;;;;;;5026449;28;20473;-88
2021/01/01 16:50:15;;;;;;;321.30;197.52;;;204.90;1715.20;;;;;;5031282;28;20052;-84
2021/01/01 16:52:48;;;;;;;277.88;166.35;;;205.30;1715.20;;;;;;5026740;28;20025;-86
2021/01/01 16:55:16;;;;;;;169.48;106.07;;;205.40;1715.20;;;;;;5029941;28;20022;-88
2021/01/01 16:57:43;;;;;;;293.80;184.02;;;205.40;1689.60;;;;;;4919531;28;20104;-86
2021/01/01 17:00:09;;;;;;;257.73;161.73;;;205.00;1740.80;;;;;;5021616;28;20034;-86
2021/01/01 17:02:36;;;;;;;271.02;173.82;;;205.10;1740.80;;;;;;5013276;28;20111;-83
2021/01/01 17:05:03;;;;;;;303.60;188.75;;;205.30;1740.80;;;;;;5015348;28;20026;-85
2021/01/01 17:07:29;;;;;;;361.90;215.15;;;205.10;1740.80;;;;;;5031866;28;20052;-87
2021/01/01 17:09:55;;;;;;;337.90;215.25;;;205.20;1740.80;;;;;;5048396;28;20482;-82
2021/01/01 17:12:23;;;;;;;353.27;231.80;;;205.10;1740.80;;;;;;5048604;28;20469;-85
2021/01/01 17:14:52;;;;;;;342.38;214.25;;;204.90;1766.40;;;;;;5049006;28;20087;-83
2021/01/01 17:17:26;;;;;;;363.35;217.82;;;204.80;1792.00;;;;;;5035816;28;20029;-83
2021/01/01 17:26:15;;;;;;;351.55;241.80;;;180.10;1792.00;;;;;;5037461;28;20036;-83
2021/01/01 17:28:52;;;;;;;304.92;206.48;;;204.80;1766.40;;;;;;5003645;28;20493;-85
2021/01/01 17:31:34;;;;;;;365.83;260.02;;;180.10;1817.60;;;;;;5037275;28;20419;-85
2021/01/01 17:37:35;;;;;;;348.02;229.18;;;179.80;1817.60;;;;;;5036104;28;20068;-83
2021/01/01 17:40:01;;;;;;;341.75;223.75;;;179.90;1817.60;;;;;;5036147;28;20124;-81
2021/01/01 17:42:26;;;;;;;359.35;234.80;;;180.00;1792.00;;;;;;4815553;28;37833;-81
2021/01/01 17:44:52;;;;;;;398.88;261.30;;;180.10;1792.00;;;;;;4789986;28;41620;-81
2021/01/01 17:47:18;;;;;;;419.25;282.15;;;180.10;1792.00;;;;;;4892472;28;63223;-82
2021/01/01 17:49:44;;;;;;;417.60;278.98;;;180.10;1766.40;;;;;;5024688;28;20065;-79
2021/01/01 17:52:21;;;;;;;432.90;286.85;;;180.10;1792.00;;;;;;5048411;28;20049;-82
2021/01/01 17:54:47;;;;;;;394.55;253.73;;;204.80;1792.00;;;;;;5050862;28;20359;-83
2021/01/01 17:57:13;;;;;;;384.67;252.88;;;180.00;1817.60;;;;;;5030285;28;20032;-82
2021/01/01 17:59:39;;;;;;;310.70;214.32;;;180.10;1792.00;;;;;;5034382;28;20037;-77
2021/01/01 18:02:05;;;;;;;280.73;184.77;;;179.80;1817.60;;;;;;5034060;28;20024;-83
2021/01/01 18:04:31;;;;;;;330.73;218.70;;;179.90;1792.00;;;;;;5018521;28;20033;-79
2021/01/01 18:06:59;;;;;;;353.27;232.13;;;179.90;1792.00;;;;;;5034599;28;20026;-81
2021/01/01 18:09:28;;;;;;;388.77;256.95;;;180.00;1792.00;;;;;;5034771;28;20029;-80
2021/01/01 18:12:15;;;;;;;368.10;249.35;;;179.80;1792.00;;;;;;5033890;28;20025;-86
2021/01/01 18:14:45;;;;;;;333.55;227.82;;;179.50;1792.00;;;;;;5050492;28;20041;-85
2021/01/01 18:17:26;;;;;;;379.05;255.68;;;180.00;1792.00;;;;;;5043738;28;20048;-81
2021/01/01 18:27:13;;;;;;;406.67;268.58;;;179.70;1843.20;;;;;;5033233;28;20037;-82
2021/01/01 18:33:13;;;;;;;368.05;242.82;;;179.70;1843.20;;;;;;5036671;28;20305;-82
2021/01/01 18:36:23;;;;;;;331.33;228.90;;;179.70;1817.60;;;;;;5034407;28;20504;-86
2021/01/01 18:43:10;;;;;;;414.75;252.60;;;179.30;1868.80;;;;;;5029138;28;20035;-84
2021/01/01 18:45:59;;;;;;;395.45;255.00;;;179.40;1843.20;;;;;;5041232;28;20024;-84
2021/01/01 18:55:47;;;;;;;348.65;221.32;;;179.50;1843.20;;;;;;5038702;28;20491;-84
2021/01/01 18:58:35;;;;;;;398.92;265.42;;;179.50;1843.20;;;;;;5064416;28;20046;-83
2021/01/01 19:01:55;;;;;;;374.70;249.40;;;154.40;1894.40;;;;;;5034669;28;20098;-82
2021/01/01 19:05:21;;;;;;;358.95;228.77;;;179.20;1868.80;;;;;;5032101;28;20083;-85
2021/01/01 19:08:54;;;;;;;384.67;252.63;;;179.40;1868.80;;;;;;5030063;28;20485;-84
2021/01/01 19:11:23;;;;;;;394.10;254.95;;;179.20;1894.40;;;;;;5028137;28;20509;-86
2021/01/01 19:14:25;;;;;;;396.33;257.83;;;179.30;1868.80;;;;;;5034225;28;21387;-85
2021/01/01 19:21:14;;;;;;;498.02;331.20;;;179.20;1894.40;;;;;;4955199;29;20058;-84
2021/01/01 19:24:44;;;;;;;496.00;329.02;;;154.40;1894.40;;;;;;4953399;29;20048;-82
2021/01/01 19:28:13;;;;;;;484.65;320.90;;;154.50;1894.40;;;;;;4954446;28;20074;-84
2021/01/01 19:35:38;;;;;;;493.08;329.65;;;154.30;1945.60;;;;;;4912729;28;20134;-84
2021/01/01 19:52:54;;;;;;;405.30;262.15;;;154.20;1920.00;;;;;;5004003;28;20032;-83
2021/01/01 19:56:13;;;;;;;402.50;258.58;;;154.20;1920.00;;;;;;5025036;28;20200;-81
2021/01/01 20:03:10;;;;;;;339.88;222.80;;;153.60;1971.20;;;;;;4921087;29;20042;-85
2021/01/01 20:06:16;;;;;;;324.50;210.95;;;153.90;1945.60;;;;;;4956489;29;20073;-82
2021/01/01 20:09:24;;;;;;;336.73;217.75;;;154.20;1920.00;;;;;;4940792;29;20019;-81
2021/01/01 20:12:52;;;;;;;367.63;236.25;;;154.30;1894.40;;;;;;4943454;29;20028;-84
2021/01/01 20:15:58;;;;;;;428.42;268.20;;;154.30;1894.40;;;;;;4884724;28;20066;-82
2021/01/01 20:19:11;;;;;;;445.05;289.42;;;154.10;1920.00;;;;;;4967979;28;20034;-84
2021/01/01 20:29:08;;;;;;;456.05;293.00;;;154.20;1920.00;;;;;;4981510;28;20037;-79
2021/01/01 20:32:23;;;;;;;363.98;234.98;;;153.70;1971.20;;;;;;5026303;28;20099;-80
2021/01/01 20:35:24;;;;;;;357.65;224.20;;;154.00;1920.00;;;;;;5032702;28;20057;-80
2021/01/01 20:38:39;;;;;;;370.10;236.80;;;154.00;1920.00;;;;;;5031263;28;20037;-83
2021/01/01 20:42:14;;;;;;;393.35;258.13;;;153.90;1920.00;;;;;;5012329;28;20560;-80
2021/01/01 20:55:33;;;;;;;432.20;239.38;;;153.80;1920.00;;;;;;4983115;28;20077;-82
2021/01/01 21:02:37;;;;;;;502.05;326.65;;;128.90;1945.60;;;;;;4999271;28;20041;-83
2021/01/01 21:05:46;;;;;;;526.75;385.83;;;153.60;1971.20;;;;;;4983310;28;20041;-80
2021/01/01 21:09:16;;;;;;;450.10;298.27;;;128.60;1996.80;;;;;;4998831;28;20033;-80
2021/01/01 21:12:35;;;;;;;503.48;332.60;;;128.80;1945.60;;;;;;4919607;29;20032;-84
2021/01/01 21:19:56;;;;;;;411.20;258.35;;;128.20;2022.40;;;;;;4814232;29;20483;-83
2021/01/01 21:26:31;;;;;;;450.40;278.98;;;128.30;2022.40;;;;;;4832687;29;20042;-82
2021/01/01 21:33:20;;;;;;;348.80;223.70;;;128.50;1945.60;;;;;;4813500;29;20058;-81
2021/01/01 21:36:55;;;;;;;328.65;201.73;;;128.10;2022.40;;;;;;4821502;29;20098;-83
2021/01/01 21:40:13;;;;;;;296.85;187.30;;;128.10;2022.40;;;;;;4822981;29;20086;-82
2021/01/01 21:44:09;;;;;;;280.60;168.35;;;103.00;2022.40;;;;;;4839873;29;20042;-81
2021/01/01 21:50:43;;;;;;;336.80;203.32;;;103.20;2022.40;;;;;;4847716;29;20094;-82
2021/01/01 21:53:58;;;;;;;378.05;229.75;;;103.20;2048.00;;;;;;4876878;29;20045;-81
2021/01/01 22:01:21;;;;;;;312.65;195.82;;;102.90;2073.60;;;;;;4893351;29;20048;-82
2021/01/01 22:07:59;;;;;;;308.33;190.63;;;103.30;1996.80;;;;;;4847433;29;20037;-83
2021/01/01 22:14:55;;;;;;;338.92;220.50;;;103.20;2022.40;;;;;;4849063;29;20053;-79
2021/01/01 22:21:31;;;;;;;430.40;270.60;;;103.00;2022.40;;;;;;4848513;29;20502;-78
2021/01/01 22:25:08;;;;;;;361.65;242.00;;;102.80;2073.60;;;;;;4862853;29;20039;-81
2021/01/01 22:28:57;;;;;;;385.30;243.48;;;103.00;2073.60;;;;;;4904129;29;20025;-82
2021/01/01 22:47:08;;;;;;;280.90;171.52;;;103.20;1996.80;;;;;;4922665;29;20042;-83
2021/01/01 22:50:46;;;;;;;346.10;204.38;;;103.10;1996.80;;;;;;4897284;29;20108;-82
2021/01/01 22:54:02;;;;;;;259.02;151.68;;;103.20;1971.20;;;;;;4921965;29;20035;-81
2021/01/01 23:00:54;;;;;;;271.80;162.20;;;102.50;2073.60;;;;;;4905574;29;20493;-82
2021/01/01 23:04:22;;;;;;;237.38;142.68;;;102.60;2048.00;;;;;;4903073;29;20036;-81
2021/01/01 23:08:00;;;;;;;282.42;165.52;;;102.40;2073.60;;;;;;4929950;29;20032;-82
2021/01/01 23:11:18;;;;;;;230.20;133.77;;;102.70;2048.00;;;;;;4869034;29;20510;-81
2021/01/01 23:14:43;;;;;;;307.88;177.25;;;103.00;2022.40;;;;;;4875400;29;20069;-82
2021/01/01 23:21:23;;;;;;;414.45;245.55;;;103.10;1971.20;;;;;;4860459;29;20045;-83
2021/01/01 23:24:38;;;;;;;366.15;217.20;;;102.90;2022.40;;;;;;4875386;29;20081;-81
2021/01/01 23:28:01;;;;;;;426.85;247.77;;;102.90;2022.40;;;;;;4874353;29;20084;-81
2021/01/01 23:31:22;;;;;;;484.35;286.70;;;103.00;2022.40;;;;;;4885733;29;20805;-80
2021/01/01 23:35:01;;;;;;;502.67;295.40;;;103.10;1996.80;;;;;;4885732;29;20033;-86
2021/01/01 23:38:35;;;;;;;338.90;198.43;;;102.80;2022.40;;;;;;4897329;29;20073;-84
2021/01/01 23:41:47;;;;;;;305.63;184.45;;;103.00;1996.80;;;;;;4902421;29;20053;-85
2021/01/01 23:45:39;;;;;;;257.35;156.82;;;103.00;2022.40;;;;;;4906955;29;20040;-82
2021/01/01 23:48:35;;;;;;;238.10;141.55;;;102.50;2048.00;;;;;;4874355;29;20040;-81
2021/01/01 23:51:57;;;;;;;220.95;135.60;;;102.80;2022.40;;;;;;4882894;29;20051;-82
2021/01/01 23:54:48;;;;;;;295.95;177.98;;;103.00;1996.80;;;;;;4867874;29;20033;-81
